createdAt,value
2016-02-02T00:00:48.391Z,10.9
2016-02-02T00:01:50.097Z,10.9
2016-02-02T00:02:50.834Z,10.9
2016-02-02T00:03:51.322Z,10.9
2016-02-02T00:04:51.809Z,10.9
2016-02-02T00:05:52.296Z,10.9
2016-02-02T00:06:52.784Z,10.9
2016-02-02T00:07:53.287Z,10.9
2016-02-02T00:08:53.742Z,10.9
2016-02-02T00:09:54.229Z,10.9
2016-02-02T00:10:54.764Z,10.8
2016-02-02T00:11:56.472Z,10.9
2016-02-02T00:12:57.256Z,10.9
2016-02-02T00:13:57.961Z,10.8
2016-02-02T00:14:58.699Z,10.8
2016-02-02T00:15:59.437Z,10.8
2016-02-02T00:17:00.190Z,10.8
2016-02-02T00:18:00.927Z,10.8
2016-02-02T00:19:01.663Z,10.9
2016-02-02T00:20:02.416Z,10.9
2016-02-02T00:21:02.938Z,10.9
2016-02-02T00:22:04.660Z,10.9
2016-02-02T00:23:05.133Z,10.9
2016-02-02T00:24:05.371Z,10.9
2016-02-02T00:25:05.592Z,10.9
2016-02-02T00:26:05.814Z,10.8
2016-02-02T00:27:06.051Z,10.8
2016-02-02T00:28:06.539Z,10.8
2016-02-02T00:29:07.011Z,10.8
2016-02-02T00:30:07.545Z,10.7
2016-02-02T00:31:08.048Z,10.7
2016-02-02T00:32:09.754Z,10.7
2016-02-02T00:33:10.257Z,10.7
2016-02-02T00:34:10.730Z,10.7
2016-02-02T00:35:11.466Z,10.7
2016-02-02T00:36:12.219Z,10.7
2016-02-02T00:37:12.942Z,10.7
2016-02-02T00:38:13.695Z,10.7
2016-02-02T00:39:14.431Z,10.7
2016-02-02T00:40:15.152Z,10.7
2016-02-02T00:41:16.234Z,10.7
2016-02-02T00:42:17.926Z,10.7
2016-02-02T00:43:19.193Z,10.6
2016-02-02T00:44:20.446Z,10.6
2016-02-02T00:45:21.699Z,10.6
2016-02-02T00:46:23.202Z,10.6
2016-02-02T00:47:24.721Z,10.6
2016-02-02T00:48:26.474Z,10.6
2016-02-02T00:49:28.258Z,10.5
2016-02-02T00:50:30.011Z,10.5
2016-02-02T00:51:32.091Z,10.5
2016-02-02T00:52:33.829Z,10.5
2016-02-02T00:53:35.833Z,10.5
2016-02-02T00:54:37.851Z,10.5
2016-02-02T00:55:40.150Z,10.5
2016-02-02T00:56:42.419Z,10.4
2016-02-02T00:57:44.690Z,10.4
2016-02-02T00:58:46.975Z,10.3
2016-02-02T00:59:49.265Z,10.3
2016-02-02T01:00:47.690Z,10.3
2016-02-02T01:01:50.036Z,10.3
2016-02-02T01:02:51.742Z,10.3
2016-02-02T01:03:54.026Z,10.3
2016-02-02T01:04:56.310Z,10.3
2016-02-02T01:05:58.579Z,10.3
2016-02-02T01:07:00.347Z,10.3
2016-02-02T01:08:02.132Z,10.3
2016-02-02T01:09:03.619Z,10.3
2016-02-02T01:10:05.170Z,10.3
2016-02-02T01:11:06.406Z,10.4
2016-02-02T01:12:07.456Z,10.5
2016-02-02T01:13:09.209Z,10.4
2016-02-02T01:14:09.914Z,10.5
2016-02-02T01:15:10.136Z,10.4
2016-02-02T01:16:10.107Z,10.4
2016-02-02T01:17:10.079Z,10.4
2016-02-02T01:18:10.066Z,10.4
2016-02-02T01:19:10.023Z,10.3
2016-02-02T01:20:09.743Z,10.3
2016-02-02T01:21:09.450Z,10.4
2016-02-02T01:22:08.968Z,10.4
2016-02-02T01:23:10.720Z,10.5
2016-02-02T01:24:10.145Z,10.5
2016-02-02T01:25:08.820Z,10.7
2016-02-02T01:26:07.510Z,10.7
2016-02-02T01:27:06.216Z,10.7
2016-02-02T01:28:04.906Z,10.8
2016-02-02T01:29:03.340Z,10.8
2016-02-02T01:30:01.768Z,10.8
2016-02-02T01:31:00.207Z,10.8
2016-02-02T01:31:58.693Z,10.9
2016-02-02T01:33:00.416Z,10.8
2016-02-02T01:33:58.871Z,10.8
2016-02-02T01:34:57.531Z,10.8
2016-02-02T01:35:56.222Z,10.8
2016-02-02T01:36:54.913Z,10.8
2016-02-02T01:37:53.603Z,10.7
2016-02-02T01:38:52.308Z,10.7
2016-02-02T01:39:51.235Z,10.7
2016-02-02T01:40:49.925Z,10.7
2016-02-02T01:41:48.428Z,10.8
2016-02-02T01:42:50.134Z,10.8
2016-02-02T01:43:48.558Z,10.8
2016-02-02T01:44:47.000Z,10.8
2016-02-02T01:45:45.437Z,10.8
2016-02-02T01:46:47.724Z,10.8
2016-02-02T01:47:49.991Z,10.9
2016-02-02T01:48:48.451Z,10.8
2016-02-02T01:49:50.719Z,10.9
2016-02-02T01:50:52.988Z,10.9
2016-02-02T01:51:55.321Z,10.9
2016-02-02T01:52:57.043Z,10.9
2016-02-02T01:53:59.342Z,10.9
2016-02-02T01:55:01.579Z,10.9
2016-02-02T01:56:00.272Z,10.9
2016-02-02T01:56:58.963Z,10.8
2016-02-02T01:57:57.653Z,10.8
2016-02-02T01:58:56.608Z,10.8
2016-02-02T01:59:55.800Z,10.7
2016-02-02T02:00:55.288Z,10.7
2016-02-02T02:01:55.056Z,10.6
2016-02-02T02:02:56.777Z,10.5
2016-02-02T02:03:57.499Z,10.5
2016-02-02T02:04:59.254Z,10.3
2016-02-02T02:06:01.287Z,10.2
2016-02-02T02:06:59.978Z,10.1
2016-02-02T02:07:59.168Z,9.9
2016-02-02T02:08:57.874Z,9.8
2016-02-02T02:09:57.096Z,9.8
2016-02-02T02:10:56.270Z,9.7
2016-02-02T02:11:55.273Z,9.7
2016-02-02T02:12:56.995Z,9.7
2016-02-02T02:13:56.701Z,9.6
2016-02-02T02:14:56.423Z,9.6
2016-02-02T02:15:56.129Z,9.6
2016-02-02T02:16:55.857Z,9.5
2016-02-02T02:17:55.564Z,9.5
2016-02-02T02:18:55.550Z,9.5
2016-02-02T02:19:55.771Z,9.4
2016-02-02T02:20:56.008Z,9.3
2016-02-02T02:21:56.825Z,9.3
2016-02-02T02:22:58.515Z,9.3
2016-02-02T02:23:59.267Z,9.3
2016-02-02T02:25:00.005Z,9.3
2016-02-02T02:26:00.746Z,9.3
2016-02-02T02:27:01.763Z,9.3
2016-02-02T02:29:04.287Z,9.3
2016-02-02T02:30:05.524Z,9.3
2016-02-02T02:31:06.776Z,9.3
2016-02-02T02:32:08.092Z,9.3
2016-02-02T02:33:09.813Z,9.3
2016-02-02T02:34:11.066Z,9.2
2016-02-02T02:35:12.334Z,9.3
2016-02-02T02:36:13.587Z,9.3
2016-02-02T02:37:14.871Z,9.3
2016-02-02T02:38:16.109Z,9.3
2016-02-02T02:39:17.392Z,9.3
2016-02-02T02:40:18.628Z,9.3
2016-02-02T02:41:19.881Z,9.3
2016-02-02T02:42:21.198Z,9.3
2016-02-02T02:43:22.920Z,9.3
2016-02-02T02:44:24.172Z,9.3
2016-02-02T02:45:25.441Z,9.3
2016-02-02T02:46:26.693Z,9.4
2016-02-02T02:47:27.948Z,9.4
2016-02-02T02:48:29.217Z,9.4
2016-02-02T02:49:30.204Z,9.4
2016-02-02T02:50:31.207Z,9.4
2016-02-02T02:51:32.210Z,9.5
2016-02-02T02:52:33.026Z,9.5
2016-02-02T02:53:34.763Z,9.5
2016-02-02T02:54:35.735Z,9.5
2016-02-02T02:55:36.487Z,9.5
2016-02-02T02:56:37.494Z,9.5
2016-02-02T02:57:38.496Z,9.5
2016-02-02T02:58:39.765Z,9.5
2016-02-02T02:59:41.007Z,9.4
2016-02-02T03:00:42.274Z,9.4
2016-02-02T03:01:43.527Z,9.4
2016-02-02T03:02:45.108Z,9.4
2016-02-02T03:03:46.799Z,9.3
2016-02-02T03:04:48.853Z,9.3
2016-02-02T03:05:50.859Z,9.3
2016-02-02T03:06:53.158Z,9.3
2016-02-02T03:07:55.458Z,9.3
2016-02-02T03:08:57.726Z,9.2
2016-02-02T03:09:59.995Z,9.2
2016-02-02T03:11:02.294Z,9.2
2016-02-02T03:12:00.861Z,9.1
2016-02-02T03:12:59.239Z,9.1
2016-02-02T03:14:00.963Z,9
2016-02-02T03:14:59.421Z,9
2016-02-02T03:15:58.095Z,9
2016-02-02T03:16:56.785Z,8.9
2016-02-02T03:17:55.491Z,8.9
2016-02-02T03:18:54.197Z,8.9
2016-02-02T03:19:52.872Z,8.9
2016-02-02T03:20:51.844Z,8.9
2016-02-02T03:21:50.781Z,8.9
2016-02-02T03:22:49.799Z,9
2016-02-02T03:23:51.524Z,9
2016-02-02T03:24:50.200Z,9.1
2016-02-02T03:25:48.906Z,9.1
2016-02-02T03:26:47.612Z,9.1
2016-02-02T03:27:46.288Z,9.1
2016-02-02T03:28:44.731Z,9.2
2016-02-02T03:29:43.171Z,9.2
2016-02-02T03:30:45.463Z,9.3
2016-02-02T03:31:47.747Z,9.3
2016-02-02T03:32:50.093Z,9.3
2016-02-02T03:33:51.801Z,9.3
2016-02-02T03:34:54.088Z,9.3
2016-02-02T03:35:56.371Z,9.3
2016-02-02T03:36:58.421Z,9.3
2016-02-02T03:38:00.441Z,9.3
2016-02-02T03:39:02.475Z,9.3
2016-02-02T03:40:04.258Z,9.4
2016-02-02T03:41:06.026Z,9.4
2016-02-02T03:42:07.810Z,9.4
2016-02-02T03:43:09.640Z,9.4
2016-02-02T03:44:11.334Z,9.4
2016-02-02T03:45:13.092Z,9.5
2016-02-02T03:46:14.583Z,9.5
2016-02-02T03:47:15.856Z,9.5
2016-02-02T03:48:17.083Z,9.5
2016-02-02T03:49:18.348Z,9.5
2016-02-02T03:50:19.615Z,9.5
2016-02-02T03:51:20.848Z,9.5
2016-02-02T03:52:22.113Z,9.5
2016-02-02T03:53:23.408Z,9.5
2016-02-02T03:54:25.129Z,9.6
2016-02-02T03:55:26.380Z,9.5
2016-02-02T03:56:27.647Z,9.5
2016-02-02T03:57:28.913Z,9.5
2016-02-02T03:58:30.165Z,9.5
2016-02-02T03:59:31.418Z,9.5
2016-02-02T04:00:32.670Z,9.5
2016-02-02T04:01:33.671Z,9.6
2016-02-02T04:02:34.689Z,9.5
2016-02-02T04:03:35.726Z,9.6
2016-02-02T04:04:37.448Z,9.6
2016-02-02T04:05:38.185Z,9.6
2016-02-02T04:06:38.938Z,9.6
2016-02-02T04:07:39.677Z,9.5
2016-02-02T04:08:40.429Z,9.5
2016-02-02T04:09:41.166Z,9.5
2016-02-02T04:10:41.919Z,9.5
2016-02-02T04:11:42.688Z,9.5
2016-02-02T04:12:43.409Z,9.5
2016-02-02T04:13:44.208Z,9.5
2016-02-02T04:14:45.914Z,9.5
2016-02-02T04:15:46.934Z,9.5
2016-02-02T04:16:47.921Z,9.5
2016-02-02T04:17:48.670Z,9.5
2016-02-02T04:18:49.423Z,9.5
2016-02-02T04:19:50.161Z,9.5
2016-02-02T04:20:50.930Z,9.5
2016-02-02T04:21:51.651Z,9.5
2016-02-02T04:22:52.403Z,9.4
2016-02-02T04:23:53.469Z,9.4
2016-02-02T04:24:55.179Z,9.4
2016-02-02T04:25:56.181Z,9.4
2016-02-02T04:26:57.185Z,9.4
2016-02-02T04:27:58.188Z,9.4
2016-02-02T04:28:58.941Z,9.4
2016-02-02T04:29:59.959Z,9.4
2016-02-02T04:31:00.947Z,9.3
2016-02-02T04:32:02.201Z,9.3
2016-02-02T04:33:03.453Z,9.3
2016-02-02T04:34:04.768Z,9.3
2016-02-02T04:35:06.490Z,9.3
2016-02-02T04:36:07.773Z,9.3
2016-02-02T04:37:08.996Z,9.3
2016-02-02T04:38:10.265Z,9.3
2016-02-02T04:39:11.532Z,9.3
2016-02-02T04:40:12.785Z,9.3
2016-02-02T04:41:14.038Z,9.3
2016-02-02T04:42:15.292Z,9.3
2016-02-02T04:43:16.560Z,9.2
2016-02-02T04:44:17.875Z,9.2
2016-02-02T04:45:19.597Z,9.2
2016-02-02T04:46:20.849Z,9.2
2016-02-02T04:47:22.118Z,9.2
2016-02-02T04:48:23.620Z,9.2
2016-02-02T04:49:24.889Z,9.1
2016-02-02T04:50:26.407Z,9.1
2016-02-02T04:51:27.941Z,9.1
2016-02-02T04:52:29.429Z,9.1
2016-02-02T04:53:30.682Z,9.1
2016-02-02T04:54:32.013Z,9.1
2016-02-02T04:55:33.718Z,9.1
2016-02-02T04:56:34.986Z,9.1
2016-02-02T04:57:36.240Z,9.1
2016-02-02T04:58:37.509Z,9.1
2016-02-02T04:59:38.792Z,9.1
2016-02-02T05:00:40.014Z,9.1
2016-02-02T05:01:41.285Z,9.1
2016-02-02T05:02:42.537Z,9.1
2016-02-02T05:03:43.805Z,9.1
2016-02-02T05:04:45.151Z,9.1
2016-02-02T05:05:46.842Z,9
2016-02-02T05:06:48.095Z,9
2016-02-02T05:07:49.364Z,9
2016-02-02T05:08:50.633Z,9
2016-02-02T05:09:51.886Z,9
2016-02-02T05:10:53.138Z,9
2016-02-02T05:11:54.394Z,8.9
2016-02-02T05:12:55.662Z,9
2016-02-02T05:13:56.918Z,8.9
2016-02-02T05:14:58.236Z,9
2016-02-02T05:15:59.957Z,9
2016-02-02T05:17:01.226Z,9
2016-02-02T05:18:02.495Z,9
2016-02-02T05:19:03.731Z,9
2016-02-02T05:20:04.733Z,9
2016-02-02T05:21:05.736Z,9
2016-02-02T05:22:06.490Z,9
2016-02-02T05:23:07.227Z,9
2016-02-02T05:24:07.979Z,9
2016-02-02T05:25:08.779Z,8.9
2016-02-02T05:26:10.501Z,8.9
2016-02-02T05:27:11.270Z,8.9
2016-02-02T05:28:11.991Z,8.9
2016-02-02T05:29:12.744Z,8.8
2016-02-02T05:30:13.519Z,8.8
2016-02-02T05:31:14.490Z,8.7
2016-02-02T05:32:15.243Z,8.7
2016-02-02T05:33:16.245Z,8.7
2016-02-02T05:34:17.499Z,8.7
2016-02-02T05:35:18.813Z,8.7
2016-02-02T05:36:20.535Z,8.6
2016-02-02T05:37:21.819Z,8.6
2016-02-02T05:38:23.041Z,8.6
2016-02-02T05:39:23.790Z,8.6
2016-02-02T05:40:24.840Z,8.6
2016-02-02T05:41:25.811Z,8.6
2016-02-02T05:43:28.317Z,8.5
2016-02-02T05:44:29.573Z,8.5
2016-02-02T05:45:30.920Z,8.5
2016-02-02T05:46:32.610Z,8.5
2016-02-02T05:47:33.878Z,8.4
2016-02-02T05:48:35.131Z,8.4
2016-02-02T05:49:36.399Z,8.3
2016-02-02T05:50:37.919Z,8.3
2016-02-02T05:51:39.686Z,8.3
2016-02-02T05:52:41.455Z,8.3
2016-02-02T05:53:43.240Z,8.3
2016-02-02T05:54:45.009Z,8.3
2016-02-02T05:55:46.589Z,8.3
2016-02-02T05:56:48.311Z,8.3
2016-02-02T05:57:50.078Z,8.3
2016-02-02T05:58:51.862Z,8.3
2016-02-02T05:59:53.631Z,8.3
2016-02-02T06:00:55.426Z,8.3
2016-02-02T06:01:57.165Z,8.3
2016-02-02T06:02:58.951Z,8.3
2016-02-02T06:04:00.737Z,8.3
2016-02-02T06:05:02.490Z,8.3
2016-02-02T06:06:04.320Z,8.3
2016-02-02T06:07:06.043Z,8.3
2016-02-02T06:08:07.810Z,8.3
2016-02-02T06:09:09.329Z,8.3
2016-02-02T06:10:10.848Z,8.3
2016-02-02T06:11:12.382Z,8.3
2016-02-02T06:12:14.150Z,8.3
2016-02-02T06:13:15.918Z,8.3
2016-02-02T06:14:17.690Z,8.3
2016-02-02T06:15:19.458Z,8.3
2016-02-02T06:16:21.038Z,8.3
2016-02-02T06:17:22.760Z,8.2
2016-02-02T06:18:24.529Z,8.2
2016-02-02T06:19:26.314Z,8.2
2016-02-02T06:20:28.099Z,8.2
2016-02-02T06:21:29.852Z,8.2
2016-02-02T06:22:31.635Z,8.2
2016-02-02T06:23:33.123Z,8.3
2016-02-02T06:24:34.391Z,8.3
2016-02-02T06:25:35.660Z,8.4
2016-02-02T06:26:36.978Z,8.4
2016-02-02T06:27:38.700Z,8.4
2016-02-02T06:28:39.438Z,8.5
2016-02-02T06:29:40.190Z,8.4
2016-02-02T06:30:40.937Z,8.4
2016-02-02T06:31:41.673Z,8.5
2016-02-02T06:32:42.427Z,8.5
2016-02-02T06:33:43.179Z,8.5
2016-02-02T06:34:43.916Z,8.5
2016-02-02T06:35:44.669Z,8.5
2016-02-02T06:36:45.485Z,8.5
2016-02-02T06:37:47.238Z,8.5
2016-02-02T06:38:47.944Z,8.5
2016-02-02T06:39:48.696Z,8.5
2016-02-02T06:40:49.449Z,8.5
2016-02-02T06:41:50.202Z,8.5
2016-02-02T06:42:50.938Z,8.6
2016-02-02T06:43:51.441Z,8.6
2016-02-02T06:44:51.929Z,8.6
2016-02-02T06:45:52.432Z,8.6
2016-02-02T06:46:53.231Z,8.7
2016-02-02T06:47:54.952Z,8.6
2016-02-02T06:48:55.704Z,8.7
2016-02-02T06:49:56.458Z,8.7
2016-02-02T06:50:57.195Z,8.7
2016-02-02T06:51:57.948Z,8.6
2016-02-02T06:52:58.701Z,8.6
2016-02-02T06:53:59.455Z,8.6
2016-02-02T06:55:00.472Z,8.5
2016-02-02T06:56:01.459Z,8.5
2016-02-02T06:57:02.792Z,8.5
2016-02-02T06:58:04.517Z,8.5
2016-02-02T06:59:05.769Z,8.4
2016-02-02T07:00:07.022Z,8.5
2016-02-02T07:01:08.293Z,8.5
2016-02-02T07:02:09.545Z,8.5
2016-02-02T07:03:10.814Z,8.5
2016-02-02T07:04:12.081Z,8.6
2016-02-02T07:05:13.334Z,8.6
2016-02-02T07:06:14.603Z,8.6
2016-02-02T07:07:15.653Z,8.6
2016-02-02T07:08:17.375Z,8.6
2016-02-02T07:09:18.129Z,8.7
2016-02-02T07:10:18.865Z,8.7
2016-02-02T07:11:19.118Z,8.8
2016-02-02T07:12:19.354Z,8.8
2016-02-02T07:13:19.581Z,8.8
2016-02-02T07:14:19.553Z,8.9
2016-02-02T07:15:19.289Z,8.9
2016-02-02T07:16:18.495Z,8.9
2016-02-02T07:17:17.778Z,9
2016-02-02T07:18:19.487Z,9
2016-02-02T07:19:18.192Z,9
2016-02-02T07:20:20.460Z,9
2016-02-02T07:21:22.748Z,9
2016-02-02T07:22:25.049Z,9
2016-02-02T07:23:27.333Z,9
2016-02-02T07:24:29.617Z,9
2016-02-02T07:25:31.681Z,9.1
2016-02-02T07:26:33.668Z,9.1
2016-02-02T07:27:35.512Z,9.1
2016-02-02T07:28:37.202Z,9.2
2016-02-02T07:29:38.472Z,9.3
2016-02-02T07:30:39.734Z,9.3
2016-02-02T07:31:40.758Z,9.3
2016-02-02T07:32:41.836Z,9.3
2016-02-02T07:33:42.823Z,9.3
2016-02-02T07:34:43.834Z,9.2
2016-02-02T07:35:44.759Z,9.2
2016-02-02T07:36:45.528Z,9.3
2016-02-02T07:37:46.045Z,9.3
2016-02-02T07:38:47.783Z,9.3
2016-02-02T07:39:47.479Z,9.3
2016-02-02T07:40:47.201Z,9.3
2016-02-02T07:41:46.923Z,9.3
2016-02-02T07:42:46.379Z,9.3
2016-02-02T07:43:45.850Z,9.3
2016-02-02T07:44:45.057Z,9.3
2016-02-02T07:45:44.277Z,9.3
2016-02-02T07:46:43.483Z,9.3
2016-02-02T07:47:42.485Z,9.3
2016-02-02T07:48:44.225Z,9.3
2016-02-02T07:49:42.900Z,9.3
2016-02-02T07:50:41.342Z,9.3
2016-02-02T07:51:42.862Z,9.4
2016-02-02T07:52:44.114Z,9.4
2016-02-02T07:53:45.632Z,9.5
2016-02-02T07:54:46.369Z,9.6
2016-02-02T07:55:46.861Z,9.6
2016-02-02T07:56:47.347Z,9.7
2016-02-02T07:57:47.663Z,9.9
2016-02-02T07:58:49.385Z,9.9
2016-02-02T07:59:48.343Z,10.1
2016-02-02T08:00:47.032Z,10.3
2016-02-02T08:01:49.316Z,10.4
2016-02-02T08:02:51.085Z,10.7
2016-02-02T08:03:52.869Z,10.9
2016-02-02T08:04:53.869Z,11.4
2016-02-02T08:05:54.591Z,11.8
2016-02-02T08:06:54.329Z,12
2016-02-02T08:07:53.115Z,12.1
2016-02-02T08:08:54.789Z,12.1
2016-02-02T08:09:53.212Z,11.7
2016-02-02T08:10:52.153Z,11.6
2016-02-02T08:11:51.875Z,11.5
2016-02-02T08:12:51.346Z,11.3
2016-02-02T08:13:51.059Z,11.3
2016-02-02T08:14:50.515Z,11.3
2016-02-02T08:15:49.991Z,11.2
2016-02-02T08:16:49.698Z,11.7
2016-02-02T08:17:48.701Z,12.3
2016-02-02T08:18:50.407Z,12.5
2016-02-02T08:19:52.175Z,13
2016-02-02T08:20:53.165Z,13.4
2016-02-02T08:21:52.871Z,13.5
2016-02-02T08:22:52.093Z,12.9
2016-02-02T08:23:51.798Z,12.1
2016-02-02T08:24:52.286Z,11.5
2016-02-02T08:25:54.071Z,11.1
2016-02-02T08:26:52.745Z,10.8
2016-02-02T08:27:51.765Z,10.5
2016-02-02T08:28:53.456Z,10.5
2016-02-02T08:29:53.427Z,10.5
2016-02-02T08:30:53.652Z,10.5
2016-02-02T08:31:53.624Z,10.5
2016-02-02T08:32:53.595Z,10.4
2016-02-02T08:33:53.301Z,10.3
2016-02-02T08:34:53.273Z,10.3
2016-02-02T08:35:53.494Z,10.2
2016-02-02T08:37:53.765Z,10.2
2016-02-02T08:38:55.455Z,10.2
2016-02-02T08:39:55.443Z,10.3
2016-02-02T08:40:55.398Z,10.3
2016-02-02T08:41:55.371Z,10.3
2016-02-02T08:42:55.342Z,10.3
2016-02-02T08:43:55.063Z,10.2
2016-02-02T08:44:54.769Z,10.2
2016-02-02T08:45:54.757Z,10.1
2016-02-02T08:46:54.715Z,10.1
2016-02-02T08:47:54.499Z,10.1
2016-02-02T08:48:56.205Z,10.1
2016-02-02T08:49:56.176Z,10
2016-02-02T08:50:56.163Z,10
2016-02-02T08:51:56.387Z,10
2016-02-02T08:52:56.593Z,9.9
2016-02-02T08:53:56.814Z,9.9
2016-02-02T08:54:56.785Z,9.9
2016-02-02T08:55:57.027Z,9.9
2016-02-02T08:56:57.248Z,9.9
2016-02-02T08:57:57.804Z,9.9
2016-02-02T08:58:59.525Z,10
2016-02-02T09:00:00.262Z,10.1
2016-02-02T09:01:01.265Z,10.3
2016-02-02T09:02:01.487Z,10.5
2016-02-02T09:03:01.709Z,10.7
2016-02-02T09:04:01.431Z,10.9
2016-02-02T09:05:00.917Z,11.4
2016-02-02T09:05:59.343Z,11.5
2016-02-02T09:07:01.611Z,11.8
2016-02-02T09:08:03.696Z,12.3
2016-02-02T09:09:05.416Z,12.9
2016-02-02T09:10:05.888Z,13
2016-02-02T09:11:06.110Z,13.5
2016-02-02T09:12:05.566Z,13.9
2016-02-02T09:13:04.507Z,14.1
2016-02-02T09:14:06.808Z,14.8
2016-02-02T09:15:08.546Z,15.7
2016-02-02T09:16:08.766Z,16.4
2016-02-02T09:17:08.270Z,17.2
2016-02-02T09:18:10.570Z,17.8
2016-02-02T09:19:12.275Z,18.4
2016-02-02T09:20:13.787Z,18.6
2016-02-02T09:21:14.258Z,18.6
2016-02-02T09:22:14.480Z,18.7
2016-02-02T09:23:15.216Z,19
2016-02-02T09:24:15.423Z,19.2
2016-02-02T09:26:14.569Z,19.2
2016-02-02T09:27:14.778Z,19.4
2016-02-02T09:28:14.280Z,19.3
2016-02-02T09:29:15.970Z,19.3
2016-02-02T09:30:14.895Z,19.4
2016-02-02T09:31:14.098Z,19.3
2016-02-02T09:32:13.007Z,19.2
2016-02-02T09:33:12.447Z,19
2016-02-02T09:34:11.888Z,18.9
2016-02-02T09:35:11.328Z,18.9
2016-02-02T09:36:10.769Z,18.9
2016-02-02T09:37:10.725Z,19.1
2016-02-02T09:38:11.010Z,19.3
2016-02-02T09:39:12.684Z,19.1
2016-02-02T09:40:12.109Z,19.1
2016-02-02T09:41:12.064Z,19.3
2016-02-02T09:42:12.004Z,19.4
2016-02-02T09:43:11.445Z,19.1
2016-02-02T09:44:10.885Z,19
2016-02-02T09:45:10.575Z,18.5
2016-02-02T09:46:10.031Z,17.8
2016-02-02T09:47:10.471Z,17.3
2016-02-02T09:48:11.770Z,17.1
2016-02-02T09:49:13.461Z,17
2016-02-02T09:50:15.469Z,16.9
2016-02-02T09:51:17.471Z,16.8
2016-02-02T09:52:19.489Z,16.5
2016-02-02T09:53:17.913Z,16.2
2016-02-02T09:54:16.823Z,15.8
2016-02-02T09:55:15.732Z,15.4
2016-02-02T09:56:15.190Z,15.1
2016-02-02T09:57:15.130Z,14.9
2016-02-02T09:58:15.398Z,14.6
2016-02-02T09:59:17.107Z,14.5
2016-02-02T10:00:17.844Z,14.6
2016-02-02T10:01:18.550Z,14.6
2016-02-02T10:02:19.306Z,14.5
2016-02-02T10:03:20.013Z,14.3
2016-02-02T10:04:20.750Z,14.4
2016-02-02T10:05:21.987Z,14.5
2016-02-02T10:06:23.208Z,14.5
2016-02-02T10:07:24.227Z,14.5
2016-02-02T10:08:25.245Z,14.5
2016-02-02T10:09:26.937Z,14.3
2016-02-02T10:10:27.923Z,14.1
2016-02-02T10:11:28.895Z,14.1
2016-02-02T10:12:30.131Z,14.1
2016-02-02T10:13:31.120Z,14.1
2016-02-02T10:14:32.106Z,14.1
2016-02-02T10:15:33.108Z,13.9
2016-02-02T10:16:34.095Z,13.7
2016-02-02T10:17:35.317Z,13.7
2016-02-02T10:18:36.617Z,13.6
2016-02-02T10:19:38.322Z,13.5
2016-02-02T10:20:40.075Z,13.6
2016-02-02T10:22:43.330Z,13.6
2016-02-02T10:23:44.818Z,13.7
2016-02-02T10:24:46.321Z,13.6
2016-02-02T10:25:47.807Z,13.7
2016-02-02T10:26:49.329Z,13.6
2016-02-02T10:27:50.582Z,13.6
2016-02-02T10:28:52.117Z,13.5
2016-02-02T10:29:53.822Z,13.3
2016-02-02T10:30:55.075Z,13.3
2016-02-02T10:31:56.562Z,13.2
2016-02-02T10:32:58.053Z,13.2
2016-02-02T10:33:59.820Z,13.1
2016-02-02T10:35:01.318Z,12.9
2016-02-02T10:36:02.821Z,12.9
2016-02-02T10:37:04.324Z,12.8
2016-02-02T10:38:05.827Z,12.7
2016-02-02T10:39:07.876Z,12.7
2016-02-02T10:40:09.584Z,12.6
2016-02-02T10:41:11.602Z,12.5
2016-02-02T10:42:13.355Z,12.5
2016-02-02T10:43:15.372Z,12.3
2016-02-02T10:44:17.375Z,12.3
2016-02-02T10:45:19.647Z,12.3
2016-02-02T10:46:21.416Z,12.3
2016-02-02T10:47:22.918Z,12.3
2016-02-02T10:48:24.686Z,12.3
2016-02-02T10:49:26.503Z,12.4
2016-02-02T10:50:28.192Z,12.3
2016-02-02T10:51:29.694Z,12.3
2016-02-02T10:52:31.197Z,12.3
2016-02-02T10:53:32.450Z,12.3
2016-02-02T10:54:33.953Z,12.3
2016-02-02T10:55:35.455Z,12.3
2016-02-02T10:56:36.958Z,12.3
2016-02-02T10:57:38.715Z,12.4
2016-02-02T10:58:40.220Z,12.4
2016-02-02T10:59:41.519Z,12.4
2016-02-02T11:00:43.225Z,12.3
2016-02-02T11:01:44.213Z,12.3
2016-02-02T11:02:45.199Z,12.3
2016-02-02T11:03:46.202Z,12.2
2016-02-02T11:04:47.189Z,12.3
2016-02-02T11:05:48.441Z,12.3
2016-02-02T11:06:49.429Z,12.3
2016-02-02T11:07:50.665Z,12.3
2016-02-02T11:08:51.685Z,12.3
2016-02-02T11:09:52.973Z,12.4
2016-02-02T11:10:54.679Z,12.4
2016-02-02T11:11:55.665Z,12.3
2016-02-02T11:12:56.653Z,12.3
2016-02-02T11:13:57.390Z,12.2
2016-02-02T11:14:58.394Z,12.2
2016-02-02T11:15:59.380Z,12.1
2016-02-02T11:17:00.368Z,12.1
2016-02-02T11:18:01.622Z,12.1
2016-02-02T11:19:03.108Z,12.2
2016-02-02T11:20:04.424Z,12.2
2016-02-02T11:21:06.113Z,12.1
2016-02-02T11:22:07.385Z,12.2
2016-02-02T11:23:08.606Z,12.2
2016-02-02T11:24:09.859Z,12.2
2016-02-02T11:25:11.361Z,12.2
2016-02-02T11:26:12.349Z,12.1
2016-02-02T11:27:13.337Z,12.1
2016-02-02T11:28:14.597Z,12.1
2016-02-02T11:29:15.833Z,12.1
2016-02-02T11:30:17.148Z,12.1
2016-02-02T11:31:18.839Z,12.1
2016-02-02T11:32:20.091Z,12
2016-02-02T11:33:21.598Z,11.9
2016-02-02T11:34:23.101Z,11.9
2016-02-02T11:35:24.603Z,11.8
2016-02-02T11:36:25.857Z,11.8
2016-02-02T11:37:27.344Z,11.7
2016-02-02T11:38:28.346Z,11.7
2016-02-02T11:39:29.599Z,11.7
2016-02-02T11:40:30.885Z,11.7
2016-02-02T11:41:32.607Z,11.7
2016-02-02T11:42:33.844Z,11.6
2016-02-02T11:43:35.096Z,11.6
2016-02-02T11:44:36.365Z,11.6
2016-02-02T11:45:37.606Z,11.6
2016-02-02T11:46:39.092Z,11.6
2016-02-02T11:47:40.596Z,11.6
2016-02-02T11:48:42.115Z,11.7
2016-02-02T11:49:43.618Z,11.6
2016-02-02T11:50:44.651Z,11.6
2016-02-02T11:51:46.357Z,11.7
2016-02-02T11:52:47.609Z,11.7
2016-02-02T11:53:48.598Z,11.7
2016-02-02T11:54:49.334Z,11.7
2016-02-02T11:55:50.070Z,11.8
2016-02-02T11:56:50.542Z,11.8
2016-02-02T11:57:51.045Z,11.8
2016-02-02T11:58:51.535Z,11.8
2016-02-02T12:00:52.259Z,11.7
2016-02-02T12:01:53.965Z,11.7
2016-02-02T12:02:54.452Z,11.7
2016-02-02T12:03:54.927Z,11.8
2016-02-02T12:04:55.415Z,11.8
2016-02-02T12:05:56.167Z,11.7
2016-02-02T12:06:56.624Z,11.7
2016-02-02T12:07:57.111Z,11.7
2016-02-02T12:08:57.583Z,11.8
2016-02-02T12:09:58.069Z,11.9
2016-02-02T12:10:58.370Z,11.9
2016-02-02T12:12:00.045Z,12
2016-02-02T12:13:00.297Z,12
2016-02-02T12:14:00.253Z,12
2016-02-02T12:15:00.224Z,12
2016-02-02T12:16:00.164Z,12
2016-02-02T12:17:00.418Z,12
2016-02-02T12:18:00.420Z,11.9
2016-02-02T12:18:59.548Z,11.9
2016-02-02T12:19:59.019Z,11.9
2016-02-02T12:20:58.521Z,11.9
2016-02-02T12:22:00.260Z,11.9
2016-02-02T12:22:59.450Z,11.9
2016-02-02T12:23:58.625Z,11.9
2016-02-02T12:24:58.080Z,11.9
2016-02-02T12:25:57.536Z,11.8
2016-02-02T12:26:56.977Z,11.8
2016-02-02T12:27:56.464Z,11.8
2016-02-02T12:28:55.888Z,11.7
2016-02-02T12:29:55.371Z,11.7
2016-02-02T12:30:54.858Z,11.7
2016-02-02T12:31:56.564Z,11.7
2016-02-02T12:32:56.019Z,11.8
2016-02-02T12:33:55.474Z,11.8
2016-02-02T12:34:55.447Z,11.9
2016-02-02T12:35:55.153Z,11.9
2016-02-02T12:36:54.624Z,11.9
2016-02-02T12:37:55.095Z,11.9
2016-02-02T12:38:54.816Z,11.9
2016-02-02T12:39:55.288Z,11.9
2016-02-02T12:40:55.057Z,11.8
2016-02-02T12:41:56.749Z,11.7
2016-02-02T12:42:56.970Z,11.7
2016-02-02T12:43:56.956Z,11.7
2016-02-02T12:44:56.929Z,11.6
2016-02-02T12:45:56.884Z,11.5
2016-02-02T12:46:56.856Z,11.5
2016-02-02T12:47:57.077Z,11.4
2016-02-02T12:48:57.298Z,11.4
2016-02-02T12:49:57.779Z,11.3
2016-02-02T12:50:58.301Z,11.4
2016-02-02T12:51:59.997Z,11.4
2016-02-02T12:53:00.489Z,11.4
2016-02-02T12:54:00.935Z,11.3
2016-02-02T12:55:01.401Z,11.3
2016-02-02T12:56:01.883Z,11.3
2016-02-02T12:57:02.367Z,11.3
2016-02-02T12:58:03.085Z,11.3
2016-02-02T12:59:03.818Z,11.3
2016-02-02T13:00:04.293Z,11.3
2016-02-02T13:01:05.091Z,11.5
2016-02-02T13:02:06.781Z,11.6
2016-02-02T13:03:07.266Z,11.7
2016-02-02T13:04:07.737Z,11.7
2016-02-02T13:05:07.724Z,11.7
2016-02-02T13:06:07.945Z,11.6
2016-02-02T13:07:08.166Z,11.6
2016-02-02T13:08:08.419Z,11.5
2016-02-02T13:09:08.874Z,11.5
2016-02-02T13:10:09.345Z,11.5
2016-02-02T13:11:10.207Z,11.5
2016-02-02T13:12:11.838Z,11.5
2016-02-02T13:13:12.574Z,11.5
2016-02-02T13:14:13.326Z,11.6
2016-02-02T13:15:14.064Z,11.7
2016-02-02T13:16:14.786Z,11.7
2016-02-02T13:17:15.523Z,11.7
2016-02-02T13:18:16.260Z,11.7
2016-02-02T13:19:16.751Z,11.7
2016-02-02T13:20:17.207Z,11.7
2016-02-02T13:21:17.757Z,11.7
2016-02-02T13:22:19.462Z,11.8
2016-02-02T13:23:20.199Z,11.8
2016-02-02T13:24:20.704Z,11.8
2016-02-02T13:25:21.426Z,11.8
2016-02-02T13:26:22.163Z,11.8
2016-02-02T13:27:22.885Z,11.8
2016-02-02T13:28:23.716Z,11.8
2016-02-02T13:29:24.376Z,11.8
2016-02-02T13:30:25.098Z,11.8
2016-02-02T13:31:25.885Z,11.7
2016-02-02T13:32:27.607Z,11.8
2016-02-02T13:33:28.093Z,11.7
2016-02-02T13:34:28.597Z,11.8
2016-02-02T13:35:29.302Z,11.7
2016-02-02T13:36:30.024Z,11.7
2016-02-02T13:37:30.526Z,11.7
2016-02-02T13:38:31.249Z,11.6
2016-02-02T13:39:31.986Z,11.6
2016-02-02T13:40:32.723Z,11.6
2016-02-02T13:41:33.772Z,11.5
2016-02-02T13:42:35.478Z,11.5
2016-02-02T13:43:35.982Z,11.5
2016-02-02T13:44:36.703Z,11.5
2016-02-02T13:45:37.441Z,11.5
2016-02-02T13:46:38.177Z,11.5
2016-02-02T13:47:39.164Z,11.5
2016-02-02T13:48:40.152Z,11.5
2016-02-02T13:49:41.154Z,11.4
2016-02-02T13:50:42.144Z,11.4